Buffalo, Illinois
Current Conditions -  °F | °C
As of 4:52 PM on Thursday 23 Oct 2014 (Local Time) from KSPI Reporting Station
Overcast Overcast  
Wind Chill: 17°   Ceiling: 5000
Heat Index: 17°   Visibility: 10mi
Dew Point:   Wind: 6mph
Humidity: 52%   Direction: 170°S
Pressure: 30.1"   Gusts: NA
Location:  39.85°N, 89.41°W
Report Text: KSPI 232152Z 17005KT 10SM OVC050 17/07 A3010 RMK AO2 SLP194 T01670067
Loading
Personal Weather Stations






























Interactive Weather Map
Tropical Storm Tracking
New forecast layout! Learn more

10-Day Weather Forecast

Advertisements
Track Severe Weather on mobile